| time (UTC) | temp F | wind direction | speed knots | gust knots | rain 1hr in | rain 24hr in | rain mn in | humidity % | barometer mb |
| 20260505162104 | 78 | 68 | 0.9 | 4.3 | 0.00 | 0.13 | 0.01 | 66 | 1006.1 |
| 20260505161605 | 80 | 319 | 2.6 | 5.2 | 0.00 | 0.13 | 0.01 | 64 | 1005.9 |
| 20260505161105 | 78 | 320 | 1.7 | 5.2 | 0.00 | 0.13 | 0.01 | 67 | 1006.7 |
| 20260505153105 | 78 | 54 | 1.7 | 2.6 | 0.00 | 0.13 | 0.01 | 68 | 1006.6 |
| 20260505152605 | 77 | 141 | 1.7 | 5.2 | 0.00 | 0.13 | 0.01 | 66 | 1007.5 |
| 20260505151105 | 78 | 127 | 1.7 | 4.3 | 0.00 | 0.13 | 0.01 | 68 | 1006.9 |
| 20260505150105 | 76 | 125 | 1.7 | 4.3 | 0.00 | 0.13 | 0.01 | 73 | 1007.8 |
| 20260505140605 | 69 | 133 | 0.0 | 0.9 | 0.00 | 0.13 | 0.01 | 86 | 1011.2 |
| 20260505140106 | 69 | 132 | 0.0 | 0.0 | 0.00 | 0.13 | 0.01 | 87 | 1011.2 |
| 20260505130106 | 68 | 159 | 0.9 | 1.7 | 0.00 | 0.13 | 0.01 | 90 | 1011.5 |
| 20260505124605 | 68 | 108 | 0.9 | 0.9 | 0.00 | 0.13 | 0.01 | 88 | 1011.2 |
| 20260505124105 | 68 | 109 | 0.0 | 0.0 | 0.00 | 0.13 | 0.01 | 89 | 1011.2 |
| 20260505123605 | 68 | 109 | 0.0 | 0.0 | 0.00 | 0.13 | 0.01 | 90 | 1011.2 |
| 20260505123105 | 67 | 109 | 0.0 | 0.0 | 0.00 | 0.13 | 0.01 | 93 | 1011.4 |
| 20260505122605 | 67 | 109 | 0.0 | 0.0 | 0.00 | 0.13 | 0.01 | 93 | 1011.7 |
| 20260505122106 | 67 | 109 | 0.0 | 0.0 | 0.00 | 0.13 | 0.01 | 93 | 1011.5 |
| 20260505121605 | 67 | 109 | 0.0 | 0.0 | 0.00 | 0.13 | 0.01 | 95 | 1011.9 |
| 20260505121105 | 66 | 109 | 0.0 | 0.0 | 0.00 | 0.13 | 0.01 | 95 | 1011.5 |
| 20260505120605 | 66 | 109 | 0.0 | 0.9 | 0.00 | 0.13 | 0.01 | 96 | 1011.9 |
| 20260505120105 | 66 | 108 | 0.0 | 0.9 | 0.00 | 0.13 | 0.01 | 96 | 1011.6 |
| 20260505115105 | 65 | 118 | 0.0 | 0.0 | 0.00 | 0.13 | 0.01 | 97 | 1011.9 |
| 20260505114605 | 65 | 135 | 0.0 | 0.0 | 0.00 | 0.13 | 0.01 | 97 | 1012.0 |
| 20260505114105 | 65 | 135 | 0.0 | 0.0 | 0.00 | 0.13 | 0.01 | 97 | 1011.9 |
| 20260505113605 | 65 | 136 | 0.0 | 0.0 | 0.00 | 0.13 | 0.01 | 97 | 1011.9 |
| 20260505113105 | 65 | 136 | 0.0 | 0.0 | 0.00 | 0.13 | 0.01 | 97 | 1011.9 |
| 20260505112605 | 65 | 136 | 0.0 | 0.0 | 0.00 | 0.13 | 0.01 | 97 | 1011.9 |
| 20260505112105 | 65 | 136 | 0.0 | 0.0 | 0.00 | 0.13 | 0.01 | 97 | 1011.9 |
| 20260505111605 | 64 | 136 | 0.0 | 0.0 | 0.00 | 0.13 | 0.01 | 97 | 1011.9 |
| 20260505111104 | 64 | 136 | 0.0 | 0.0 | 0.00 | 0.13 | 0.01 | 97 | 1012.2 |
| 20260505110605 | 64 | 136 | 0.0 | 0.0 | 0.00 | 0.13 | 0.01 | 97 | 1011.9 |
| 20260505110109 | 64 | 136 | 0.0 | 0.0 | 0.00 | 0.13 | 0.01 | 97 | 1011.9 |
| 20260505101605 | 64 | 136 | 0.0 | 0.0 | 0.00 | 0.13 | 0.01 | 95 | 1012.0 |
| 20260505101105 | 64 | 136 | 0.0 | 0.0 | 0.00 | 0.13 | 0.01 | 95 | 1012.2 |
| 20260505100605 | 64 | 136 | 0.0 | 0.0 | 0.00 | 0.13 | 0.01 | 93 | 1012.5 |
| 20260505095605 | 64 | 136 | 0.0 | 0.0 | 0.00 | 0.13 | 0.01 | 75 | 1011.4 |
| 20260505095105 | 64 | 136 | 0.0 | 0.0 | 0.00 | 0.13 | 0.01 | 75 | 1011.5 |
| 20260505094104 | 64 | 136 | 0.0 | 0.0 | 0.00 | 0.13 | 0.01 | 74 | 1011.2 |
| 20260505093605 | 65 | 136 | 0.0 | 0.0 | 0.00 | 0.13 | 0.01 | 74 | 1011.0 |
| 20260505093105 | 65 | 136 | 0.0 | 0.0 | 0.00 | 0.13 | 0.01 | 74 | 1010.8 |
| 20260505092105 | 65 | 136 | 0.0 | 0.0 | 0.00 | 0.13 | 0.01 | 74 | 1010.5 |
| 20260505091605 | 65 | 136 | 0.0 | 0.0 | 0.00 | 0.13 | 0.01 | 74 | 1010.8 |
| 20260505091105 | 65 | 136 | 0.0 | 0.0 | 0.00 | 0.13 | 0.01 | 75 | 1010.5 |
| 20260505090605 | 65 | 136 | 0.0 | 0.0 | 0.00 | 0.13 | 0.01 | 75 | 1010.5 |
| 20260505090104 | 65 | 136 | 0.0 | 0.0 | 0.00 | 0.13 | 0.01 | 75 | 1010.8 |
| 20260505085605 | 65 | 136 | 0.0 | 0.0 | 0.00 | 0.13 | 0.01 | 75 | 1010.5 |
| 20260505085105 | 65 | 136 | 0.0 | 0.0 | 0.00 | 0.13 | 0.01 | 75 | 1010.8 |
| 20260505084605 | 65 | 136 | 0.0 | 0.0 | 0.00 | 0.13 | 0.01 | 75 | 1010.5 |
| 20260505084104 | 65 | 136 | 0.0 | 0.0 | 0.00 | 0.13 | 0.01 | 75 | 1010.5 |
| 20260505083605 | 65 | 136 | 0.0 | 0.0 | 0.00 | 0.13 | 0.01 | 75 | 1010.5 |
| 20260505083105 | 65 | 136 | 0.0 | 0.0 | 0.00 | 0.13 | 0.01 | 75 | 1010.6 |
| 20260505082605 | 65 | 136 | 0.0 | 0.0 | 0.00 | 0.13 | 0.01 | 75 | 1010.5 |
| 20260505082105 | 65 | 136 | 0.0 | 0.0 | 0.00 | 0.13 | 0.01 | 75 | 1010.8 |
| 20260505081605 | 64 | 136 | 0.0 | 0.0 | 0.00 | 0.13 | 0.01 | 75 | 1010.8 |
| 20260505081104 | 64 | 136 | 0.0 | 0.0 | 0.00 | 0.13 | 0.01 | 75 | 1010.6 |
| 20260505080605 | 65 | 136 | 0.0 | 0.0 | 0.00 | 0.13 | 0.01 | 74 | 1010.5 |
| 20260505080105 | 65 | 136 | 0.0 | 0.0 | 0.00 | 0.13 | 0.01 | 74 | 1010.5 |
| 20260505074607 | 65 | 136 | 0.0 | 0.0 | 0.00 | 0.13 | 0.01 | 74 | 1010.2 |
| 20260505074105 | 65 | 136 | 0.0 | 0.0 | 0.00 | 0.13 | 0.01 | 74 | 1010.2 |
| 20260505073105 | 65 | 135 | 0.0 | 0.0 | 0.00 | 0.13 | 0.01 | 74 | 1010.5 |
| 20260505072606 | 65 | 136 | 0.0 | 0.0 | 0.01 | 0.13 | 0.01 | 74 | 1010.2 |
| 20260505072105 | 65 | 136 | 0.0 | 0.0 | 0.01 | 0.13 | 0.01 | 74 | 1010.5 |
| 20260505071606 | 65 | 136 | 0.0 | 0.0 | 0.01 | 0.13 | 0.01 | 74 | 1010.5 |
| 20260505071106 | 65 | 144 | 0.0 | 0.0 | 0.01 | 0.13 | 0.01 | 74 | 1010.8 |
| 20260505070605 | 65 | 157 | 0.0 | 0.0 | 0.01 | 0.13 | 0.01 | 74 | 1010.5 |
| 20260505070105 | 65 | 80 | 0.0 | 0.0 | 0.01 | 0.13 | 0.01 | 74 | 1010.8 |
| 20260505065104 | 65 | 79 | 0.9 | 1.7 | 0.01 | 0.13 | 0.01 | 74 | 1011.0 |
| 20260505064606 | 65 | 118 | 0.9 | 0.9 | 0.01 | 0.13 | 0.01 | 74 | 1011.2 |
| 20260505064105 | 65 | 118 | 0.0 | 0.0 | 0.01 | 0.13 | 0.01 | 74 | 1011.2 |
| 20260505063605 | 65 | 119 | 0.0 | 0.0 | 0.01 | 0.13 | 0.01 | 74 | 1011.2 |
| 20260505063105 | 65 | 119 | 0.0 | 1.7 | 0.01 | 0.13 | 0.01 | 74 | 1011.3 |
| 20260505062605 | 65 | 118 | 0.9 | 1.7 | 0.00 | 0.12 | 0.00 | 74 | 1011.5 |
| 20260505062105 | 65 | 109 | 0.9 | 1.7 | 0.00 | 0.12 | 0.00 | 74 | 1011.5 |
| 20260505061605 | 65 | 143 | 0.0 | 0.0 | 0.00 | 0.12 | 0.00 | 74 | 1011.2 |
| 20260505061105 | 65 | 143 | 0.0 | 0.9 | 0.00 | 0.12 | 0.00 | 74 | 1011.5 |
| 20260505060605 | 65 | 142 | 0.9 | 0.9 | 0.00 | 0.12 | 0.00 | 74 | 1011.5 |
| 20260505060105 | 65 | 98 | 0.0 | 0.0 | 0.00 | 0.12 | 0.00 | 74 | 1011.5 |
| 20260505055105 | 65 | 96 | 0.0 | 0.0 | 0.00 | 0.12 | 0.00 | 74 | 1011.5 |
| 20260505054605 | 65 | 96 | 0.0 | 0.0 | 0.00 | 0.12 | 0.00 | 74 | 1011.4 |
| 20260505054105 | 65 | 96 | 0.0 | 0.0 | 0.00 | 0.12 | 0.00 | 74 | 1011.5 |
| 20260505053605 | 65 | 95 | 0.0 | 0.0 | 0.00 | 0.12 | 0.00 | 74 | 1011.5 |
| 20260505053105 | 65 | 95 | 0.0 | 0.0 | 0.01 | 0.12 | 0.00 | 74 | 1011.5 |
| 20260505052605 | 65 | 95 | 0.0 | 0.0 | 0.01 | 0.12 | 0.00 | 74 | 1011.5 |
| 20260505052105 | 65 | 95 | 0.0 | 0.0 | 0.01 | 0.12 | 0.00 | 74 | 1011.5 |
| 20260505051105 | 65 | 95 | 0.0 | 0.0 | 0.01 | 0.12 | 0.00 | 74 | 1011.7 |
| 20260505050605 | 65 | 95 | 0.0 | 0.0 | 0.01 | 0.12 | 0.00 | 74 | 1011.5 |
| 20260505050105 | 65 | 95 | 0.0 | 0.0 | 0.01 | 0.12 | 0.00 | 74 | 1011.5 |
| 20260505041605 | 65 | 95 | 0.0 | 0.0 | 0.08 | 0.11 | 0.11 | 73 | 1012.2 |
| 20260505041105 | 65 | 95 | 0.0 | 0.0 | 0.08 | 0.11 | 0.11 | 73 | 1012.5 |
| 20260505040604 | 65 | 95 | 0.0 | 1.7 | 0.08 | 0.11 | 0.11 | 72 | 1012.4 |
| 20260505040105 | 65 | 95 | 0.0 | 1.7 | 0.08 | 0.11 | 0.11 | 72 | 1012.3 |
| 20260505035605 | 66 | 155 | 0.0 | 0.9 | 0.08 | 0.11 | 0.11 | 71 | 1012.2 |
| 20260505035106 | 66 | 155 | 0.9 | 1.7 | 0.08 | 0.11 | 0.11 | 70 | 1012.4 |
| 20260505034605 | 66 | 155 | 0.9 | 2.6 | 0.08 | 0.11 | 0.11 | 70 | 1012.4 |
| 20260505034105 | 66 | 156 | 1.7 | 2.6 | 0.03 | 0.06 | 0.06 | 70 | 1012.2 |
| 20260505033605 | 66 | 155 | 0.9 | 2.6 | 0.01 | 0.04 | 0.04 | 70 | 1012.5 |
| 20260505033104 | 67 | 136 | 1.7 | 4.3 | 0.00 | 0.03 | 0.03 | 70 | 1011.9 |
| 20260505032605 | 67 | 161 | 2.6 | 4.3 | 0.00 | 0.03 | 0.03 | 71 | 1012.2 |
| 20260505031605 | 67 | 96 | 0.0 | 0.0 | 0.02 | 0.03 | 0.03 | 71 | 1011.9 |
| 20260505031105 | 67 | 96 | 0.0 | 0.0 | 0.03 | 0.03 | 0.03 | 70 | 1011.9 |
| 20260505030605 | 67 | 96 | 0.0 | 0.0 | 0.03 | 0.03 | 0.03 | 70 | 1011.9 |
| 20260505030105 | 67 | 96 | 0.0 | 0.0 | 0.03 | 0.04 | 0.03 | 70 | 1011.6 |
| 20260505025605 | 67 | 96 | 0.0 | 0.0 | 0.03 | 0.09 | 0.03 | 69 | 1011.9 |
| 20260505024605 | 67 | 97 | 0.0 | 0.0 | 0.03 | 0.19 | 0.03 | 70 | 1011.5 |
| 20260505024105 | 68 | 96 | 0.0 | 1.7 | 0.03 | 0.19 | 0.03 | 70 | 1011.5 |
| 20260505023605 | 68 | 113 | 0.0 | 1.7 | 0.03 | 0.19 | 0.03 | 70 | 1011.9 |
| 20260505023105 | 68 | 138 | 0.9 | 1.7 | 0.03 | 0.19 | 0.03 | 70 | 1011.5 |
| 20260505022105 | 68 | 75 | 0.9 | 0.9 | 0.02 | 0.18 | 0.02 | 68 | 1011.1 |
| 20260505021605 | 69 | 140 | 0.0 | 0.9 | 0.01 | 0.17 | 0.01 | 66 | 1011.2 |
| 20260505021105 | 69 | 185 | 0.0 | 0.0 | 0.00 | 0.16 | 0.00 | 65 | 1010.8 |
| 20260505020105 | 69 | 185 | 0.0 | 2.6 | 0.00 | 0.16 | 0.00 | 65 | 1010.7 |
| 20260505015106 | 69 | 179 | 1.7 | 4.3 | 0.00 | 0.16 | 0.00 | 64 | 1010.5 |
| 20260505014605 | 69 | 183 | 1.7 | 4.3 | 0.00 | 0.17 | 0.00 | 65 | 1010.3 |
| 20260505014105 | 69 | 173 | 0.0 | 0.0 | 0.00 | 0.17 | 0.00 | 65 | 1010.4 |
| 20260505013605 | 69 | 173 | 0.0 | 0.0 | 0.00 | 0.19 | 0.00 | 66 | 1010.5 |
| 20260505013105 | 68 | 173 | 0.0 | 0.9 | 0.00 | 0.19 | 0.00 | 67 | 1010.2 |
| 20260505012104 | 69 | 173 | 0.0 | 0.9 | 0.00 | 0.19 | 0.00 | 66 | 1010.2 |
| 20260505011620 | 69 | 173 | 0.9 | 0.9 | 0.00 | 0.19 | 0.00 | 66 | 1009.8 |
| 20260505011105 | 69 | 173 | 0.0 | 0.0 | 0.00 | 0.19 | 0.00 | 66 | 1009.8 |
| 20260505010604 | 69 | 173 | 0.0 | 0.0 | 0.00 | 0.19 | 0.00 | 66 | 1009.8 |
| 20260505010105 | 69 | 173 | 0.0 | 0.0 | 0.00 | 0.19 | 0.00 | 66 | 1009.8 |
| 20260505005605 | 69 | 173 | 0.0 | 0.0 | 0.00 | 0.19 | 0.00 | 65 | 1009.4 |
| 20260505005106 | 69 | 173 | 0.0 | 0.9 | 0.00 | 0.19 | 0.00 | 65 | 1009.4 |
| 20260505004605 | 69 | 173 | 0.0 | 1.7 | 0.00 | 0.19 | 0.00 | 64 | 1009.1 |
| 20260505004105 | 69 | 173 | 0.9 | 1.7 | 0.00 | 0.19 | 0.00 | 64 | 1009.1 |
| 20260505003605 | 69 | 173 | 0.9 | 2.6 | 0.00 | 0.19 | 0.00 | 64 | 1008.8 |
| 20260505003105 | 69 | 166 | 1.7 | 4.3 | 0.00 | 0.19 | 0.00 | 64 | 1008.8 |
| 20260505002604 | 69 | 170 | 2.6 | 4.3 | 0.00 | 0.19 | 0.00 | 63 | 1009.0 |
| 20260505002105 | 69 | 128 | 0.0 | 0.0 | 0.00 | 0.19 | 0.00 | 64 | 1008.8 |
| 20260505001605 | 70 | 128 | 0.0 | 0.9 | 0.00 | 0.19 | 0.00 | 65 | 1008.5 |
| 20260505000605 | 85 | 260 | 2.6 | 6.1 | 0.00 | 0.19 | 0.00 | 46 | 999.7 |
| 20260505000105 | 85 | 260 | 2.6 | 6.1 | 0.00 | 0.19 | 0.00 | 46 | 999.7 |
| 20260504235604 | 85 | 260 | 2.6 | 6.1 | 0.00 | 0.19 | 0.00 | 46 | 999.7 |
| 20260504235105 | 85 | 260 | 2.6 | 6.1 | 0.00 | 0.19 | 0.00 | 46 | 999.7 |
| 20260504234605 | 85 | 260 | 2.6 | 6.1 | 0.00 | 0.19 | 0.00 | 46 | 999.7 |
| 20260504234104 | 85 | 260 | 2.6 | 6.1 | 0.00 | 0.19 | 0.00 | 46 | 999.7 |
| 20260504233104 | 85 | 260 | 2.6 | 6.1 | 0.00 | 0.19 | 0.00 | 46 | 999.7 |
| 20260504232605 | 85 | 260 | 2.6 | 6.1 | 0.00 | 0.19 | 0.00 | 46 | 999.7 |
| 20260504232105 | 85 | 260 | 2.6 | 6.1 | 0.00 | 0.19 | 0.00 | 46 | 999.7 |
| 20260504231605 | 85 | 260 | 2.6 | 6.1 | 0.00 | 0.19 | 0.00 | 46 | 999.7 |
| 20260504230605 | 85 | 260 | 2.6 | 6.1 | 0.00 | 0.19 | 0.00 | 46 | 999.7 |
| 20260504230105 | 85 | 260 | 2.6 | 6.1 | 0.00 | 0.19 | 0.00 | 46 | 999.7 |
| 20260504225605 | 85 | 260 | 2.6 | 6.1 | 0.00 | 0.19 | 0.00 | 46 | 999.7 |
| 20260504225104 | 85 | 260 | 2.6 | 6.1 | 0.00 | 0.19 | 0.00 | 46 | 999.7 |
| 20260504224605 | 85 | 260 | 2.6 | 6.1 | 0.00 | 0.19 | 0.00 | 46 | 999.7 |
| 20260504223605 | 85 | 260 | 2.6 | 6.1 | 0.00 | 0.19 | 0.00 | 46 | 999.7 |
| 20260504223104 | 85 | 260 | 2.6 | 6.1 | 0.00 | 0.19 | 0.00 | 46 | 999.7 |
| 20260504222604 | 85 | 260 | 2.6 | 6.1 | 0.00 | 0.19 | 0.00 | 46 | 999.7 |
| 20260504222105 | 85 | 260 | 2.6 | 6.1 | 0.00 | 0.19 | 0.00 | 46 | 999.7 |
| 20260504221605 | 85 | 260 | 2.6 | 6.1 | 0.00 | 0.19 | 0.00 | 46 | 999.7 |
| 20260504221105 | 85 | 260 | 2.6 | 6.1 | 0.00 | 0.19 | 0.00 | 46 | 999.7 |
| 20260504220605 | 85 | 260 | 2.6 | 6.1 | 0.00 | 0.19 | 0.00 | 46 | 999.7 |
| 20260504220106 | 85 | 260 | 2.6 | 6.1 | 0.00 | 0.19 | 0.00 | 46 | 999.7 |
| 20260504215606 | 85 | 260 | 2.6 | 6.1 | 0.00 | 0.19 | 0.00 | 46 | 999.7 |
| 20260504215104 | 85 | 260 | 2.6 | 6.1 | 0.00 | 0.19 | 0.00 | 46 | 999.7 |
| 20260504214605 | 85 | 260 | 2.6 | 6.1 | 0.00 | 0.19 | 0.00 | 46 | 999.7 |
| 20260504214105 | 85 | 260 | 2.6 | 6.1 | 0.00 | 0.19 | 0.00 | 46 | 999.7 |
| 20260504213604 | 85 | 260 | 2.6 | 6.1 | 0.00 | 0.19 | 0.00 | 46 | 999.7 |
| 20260504212605 | 85 | 260 | 2.6 | 6.1 | 0.00 | 0.19 | 0.00 | 46 | 999.7 |
| 20260504212105 | 85 | 260 | 2.6 | 6.1 | 0.00 | 0.19 | 0.00 | 46 | 999.7 |
| 20260504211605 | 85 | 260 | 2.6 | 6.1 | 0.00 | 0.19 | 0.00 | 46 | 999.7 |
| 20260504211104 | 85 | 260 | 2.6 | 6.1 | 0.00 | 0.19 | 0.00 | 46 | 999.7 |
| 20260504210106 | 85 | 260 | 2.6 | 6.1 | 0.00 | 0.19 | 0.00 | 46 | 999.7 |
| 20260504205604 | 85 | 260 | 2.6 | 6.1 | 0.00 | 0.19 | 0.00 | 46 | 999.7 |
| 20260504205104 | 85 | 95 | 2.6 | 8.7 | 0.00 | 0.19 | 0.00 | 47 | 1000.1 |
| 20260504204605 | 85 | 281 | 4.3 | 11.3 | 0.00 | 0.19 | 0.00 | 46 | 999.7 |
| 20260504204105 | 86 | 293 | 7.0 | 13.0 | 0.00 | 0.19 | 0.00 | 46 | 999.6 |
| 20260504203604 | 87 | 2 | 6.1 | 11.3 | 0.00 | 0.19 | 0.00 | 43 | 999.4 |
| 20260504203104 | 86 | 344 | 2.6 | 11.3 | 0.00 | 0.19 | 0.00 | 43 | 999.7 |
| 20260504202605 | 86 | 9 | 4.3 | 13.0 | 0.00 | 0.19 | 0.00 | 44 | 999.6 |
| 20260504202105 | 87 | 348 | 4.3 | 12.2 | 0.00 | 0.19 | 0.00 | 44 | 999.7 |
| 20260504201604 | 86 | 148 | 4.3 | 12.2 | 0.00 | 0.19 | 0.00 | 45 | 999.7 |
| 20260504201105 | 87 | 316 | 6.1 | 11.3 | 0.00 | 0.19 | 0.00 | 44 | 999.7 |
| 20260504200605 | 87 | 149 | 4.3 | 10.4 | 0.00 | 0.19 | 0.00 | 44 | 999.7 |
| 20260504200105 | 87 | 292 | 6.1 | 10.4 | 0.00 | 0.19 | 0.00 | 43 | 999.7 |
| 20260504195605 | 87 | 296 | 6.1 | 8.7 | 0.00 | 0.19 | 0.00 | 43 | 999.7 |
| 20260504195105 | 86 | 339 | 5.2 | 10.4 | 0.00 | 0.19 | 0.00 | 45 | 1000.0 |
| 20260504194604 | 85 | 16 | 2.6 | 10.4 | 0.00 | 0.19 | 0.00 | 47 | 1000.7 |
| 20260504194104 | 85 | 282 | 2.6 | 10.4 | 0.00 | 0.19 | 0.00 | 47 | 1000.7 |
| 20260504193604 | 85 | 172 | 2.6 | 17.4 | 0.00 | 0.19 | 0.00 | 48 | 1000.7 |
| 20260504193105 | 86 | 346 | 5.2 | 13.0 | 0.00 | 0.19 | 0.00 | 45 | 1000.2 |
| 20260504192604 | 86 | 288 | 6.1 | 19.1 | 0.00 | 0.19 | 0.00 | 47 | 1000.6 |
| 20260504192105 | 86 | 7 | 8.7 | 19.1 | 0.00 | 0.19 | 0.00 | 46 | 1000.3 |
| 20260504191604 | 87 | 328 | 5.2 | 10.4 | 0.00 | 0.19 | 0.00 | 42 | 1000.0 |
| 20260504190604 | 86 | 291 | 4.3 | 14.8 | 0.00 | 0.19 | 0.00 | 44 | 1000.7 |
| 20260504190105 | 85 | 323 | 7.8 | 14.8 | 0.00 | 0.19 | 0.00 | 47 | 1000.7 |
| 20260504185605 | 86 | 339 | 5.2 | 14.8 | 0.00 | 0.19 | 0.00 | 44 | 1000.6 |
| 20260504185105 | 87 | 276 | 1.7 | 18.2 | 0.00 | 0.19 | 0.00 | 44 | 1000.3 |
| 20260504184605 | 88 | 1 | 4.3 | 10.4 | 0.00 | 0.19 | 0.00 | 41 | 999.8 |
| 20260504184105 | 87 | 50 | 5.2 | 11.3 | 0.00 | 0.19 | 0.00 | 43 | 1000.2 |
| 20260504183604 | 87 | 334 | 5.2 | 13.9 | 0.00 | 0.19 | 0.00 | 43 | 1000.3 |
| 20260504183105 | 87 | 348 | 6.1 | 14.8 | 0.00 | 0.19 | 0.00 | 43 | 1000.6 |
| 20260504182604 | 88 | 323 | 4.3 | 14.8 | 0.00 | 0.19 | 0.00 | 43 | 1000.5 |
| 20260504182104 | 87 | 268 | 4.3 | 10.4 | 0.00 | 0.19 | 0.00 | 42 | 1000.3 |
| 20260504181605 | 87 | 318 | 5.2 | 14.8 | 0.00 | 0.19 | 0.00 | 42 | 1000.7 |
| 20260504181104 | 88 | 32 | 2.6 | 13.9 | 0.00 | 0.19 | 0.00 | 43 | 1000.4 |
| 20260504180105 | 89 | 290 | 7.0 | 11.3 | 0.00 | 0.19 | 0.00 | 39 | 1000.3 |
| 20260504175605 | 88 | 26 | 6.1 | 10.4 | 0.00 | 0.19 | 0.00 | 41 | 1000.7 |
| 20260504175104 | 87 | 280 | 5.2 | 12.2 | 0.00 | 0.19 | 0.00 | 43 | 1000.9 |
| 20260504174604 | 87 | 287 | 6.1 | 12.2 | 0.00 | 0.19 | 0.00 | 41 | 1001.0 |
| 20260504174105 | 87 | 158 | 6.1 | 12.2 | 0.00 | 0.19 | 0.00 | 43 | 1001.0 |
| 20260504173604 | 87 | 198 | 3.5 | 11.3 | 0.00 | 0.19 | 0.00 | 42 | 1001.4 |
| 20260504173104 | 86 | 12 | 5.2 | 15.6 | 0.00 | 0.19 | 0.00 | 44 | 1001.7 |
| 20260504172605 | 86 | 309 | 6.1 | 13.9 | 0.00 | 0.19 | 0.00 | 43 | 1001.7 |
| 20260504171605 | 78 | 324 | 3.5 | 13.9 | 0.00 | 0.19 | 0.00 | 50 | 1005.1 |
| 20260504171105 | 78 | 312 | 6.1 | 10.4 | 0.00 | 0.19 | 0.00 | 47 | 1004.7 |
| 20260504170105 | 78 | 330 | 4.3 | 12.2 | 0.00 | 0.19 | 0.00 | 53 | 1005.3 |